createdAt,value
2022-08-25T00:00:39.799Z,37.19
2022-08-25T00:02:59.817Z,37.56
2022-08-25T00:05:04.612Z,37.62
2022-08-25T00:05:55.189Z,38.00
2022-08-25T00:06:44.711Z,37.35
2022-08-25T00:07:44.960Z,37.84
2022-08-25T00:08:51.744Z,37.82
2022-08-25T00:13:40.389Z,37.45
2022-08-25T00:14:39.417Z,37.49
2022-08-25T00:15:36.066Z,37.74
2022-08-25T00:16:43.871Z,37.90
2022-08-25T00:20:08.085Z,37.26
2022-08-25T00:20:56.854Z,37.33
2022-08-25T00:21:45.236Z,37.53
2022-08-25T00:22:35.104Z,37.32
2022-08-25T00:23:32.009Z,37.63
2022-08-25T00:31:24.934Z,37.31
2022-08-25T00:33:40.603Z,37.79
2022-08-25T00:38:00.013Z,37.60
2022-08-25T00:38:52.847Z,37.86
2022-08-25T00:39:47.471Z,37.79
2022-08-25T00:44:11.526Z,37.65
2022-08-25T00:45:03.475Z,37.36
2022-08-25T00:45:55.219Z,37.71
2022-08-25T00:46:46.197Z,37.18
2022-08-25T00:47:47.412Z,37.51
2022-08-25T00:48:45.561Z,37.46
2022-08-25T00:49:37.658Z,37.45
2022-08-25T00:50:32.105Z,37.40
2022-08-25T00:51:23.643Z,37.47
2022-08-25T00:52:12.252Z,37.52
2022-08-25T00:53:05.677Z,37.19
2022-08-25T00:55:09.827Z,36.95
2022-08-25T00:55:59.237Z,37.13
2022-08-25T00:56:39.633Z,37.45
2022-08-25T00:57:34.463Z,37.07
2022-08-25T01:00:06.660Z,37.47
2022-08-25T01:01:02.355Z,37.63
2022-08-25T01:01:49.823Z,37.32
2022-08-25T01:02:40.480Z,37.21
2022-08-25T01:03:25.279Z,37.31
2022-08-25T01:04:19.932Z,37.22
2022-08-25T01:05:07.581Z,37.14
2022-08-25T01:05:58.014Z,37.30
2022-08-25T01:06:50.955Z,37.52
2022-08-25T01:07:40.040Z,37.66
2022-08-25T01:08:39.036Z,37.39
2022-08-25T01:09:34.732Z,37.56
2022-08-25T01:10:26.046Z,37.43
2022-08-25T01:11:29.810Z,37.37
2022-08-25T01:13:50.425Z,37.71
2022-08-25T01:14:33.519Z,37.47
2022-08-25T01:15:20.265Z,37.63
2022-08-25T01:16:03.183Z,37.20
2022-08-25T01:16:54.600Z,37.79
2022-08-25T01:17:44.811Z,37.63
2022-08-25T01:18:35.490Z,37.44
2022-08-25T01:19:23.045Z,37.52
2022-08-25T01:20:07.281Z,37.24
2022-08-25T01:20:55.474Z,37.29
2022-08-25T01:21:52.385Z,37.71
2022-08-25T01:22:45.479Z,37.80
2022-08-25T01:23:50.170Z,37.45
2022-08-25T01:24:46.791Z,37.27
2022-08-25T01:27:17.183Z,37.79
2022-08-25T01:28:10.046Z,37.26
2022-08-25T01:28:58.519Z,37.25
2022-08-25T01:29:44.153Z,37.49
2022-08-25T01:30:29.795Z,37.89
2022-08-25T01:31:23.701Z,37.32
2022-08-25T01:32:06.323Z,37.51
2022-08-25T01:32:52.255Z,37.40
2022-08-25T01:33:44.864Z,37.70
2022-08-25T01:34:30.854Z,37.80
2022-08-25T01:35:19.033Z,37.44
2022-08-25T01:36:05.737Z,37.82
2022-08-25T01:36:54.967Z,37.73
2022-08-25T01:37:44.949Z,37.71
2022-08-25T01:38:42.309Z,37.52
2022-08-25T01:39:36.276Z,37.36
2022-08-25T01:41:27.718Z,37.31
2022-08-25T01:42:12.568Z,37.33
2022-08-25T01:43:15.291Z,37.29
2022-08-25T01:44:23.419Z,37.79
2022-08-25T01:46:28.255Z,37.37
2022-08-25T01:47:28.969Z,37.58
2022-08-25T01:50:37.761Z,37.50
2022-08-25T01:51:24.533Z,37.44
2022-08-25T01:52:21.572Z,37.44
2022-08-25T01:53:13.541Z,37.41
2022-08-25T01:54:05.837Z,37.41
2022-08-25T01:54:57.672Z,37.78
2022-08-25T01:55:55.135Z,37.82
2022-08-25T02:03:29.860Z,37.65
2022-08-25T02:05:36.215Z,37.56
2022-08-25T02:06:29.739Z,37.84
2022-08-25T02:07:20.886Z,37.67
2022-08-25T02:08:15.017Z,37.32
2022-08-25T02:09:05.981Z,37.85
2022-08-25T02:09:59.028Z,37.87
2022-08-25T02:10:59.044Z,37.78
2022-08-25T02:11:51.438Z,37.87
2022-08-25T02:12:51.219Z,37.66
2022-08-25T02:13:54.372Z,37.77
2022-08-25T02:14:55.342Z,37.46
2022-08-25T02:15:52.105Z,37.80
2022-08-25T02:16:51.939Z,37.31
2022-08-25T02:25:30.040Z,37.47
2022-08-25T02:26:16.770Z,37.46
2022-08-25T02:27:00.580Z,37.44
2022-08-25T02:27:45.931Z,37.86
2022-08-25T02:28:31.521Z,37.40
2022-08-25T02:29:23.099Z,37.68
2022-08-25T02:30:06.577Z,37.96
2022-08-25T02:31:01.546Z,37.48
2022-08-25T02:31:48.209Z,37.76
2022-08-25T02:32:39.966Z,37.72
2022-08-25T02:33:29.869Z,37.75
2022-08-25T02:35:24.609Z,37.88
2022-08-25T02:36:17.840Z,37.55
2022-08-25T02:37:06.776Z,37.93
2022-08-25T02:37:53.522Z,37.58
2022-08-25T02:38:38.880Z,37.50
2022-08-25T02:39:30.558Z,37.47
2022-08-25T02:40:20.883Z,37.93
2022-08-25T02:41:17.714Z,37.83
2022-08-25T02:42:17.708Z,37.92
2022-08-25T02:44:45.559Z,37.78
2022-08-25T02:45:37.559Z,37.76
2022-08-25T02:46:29.753Z,37.78
2022-08-25T02:47:17.750Z,37.51
2022-08-25T02:48:11.702Z,37.82
2022-08-25T02:48:57.295Z,37.81
2022-08-25T02:49:51.570Z,37.94
2022-08-25T02:50:41.567Z,37.88
2022-08-25T02:51:26.315Z,37.79
2022-08-25T02:52:12.208Z,37.66
2022-08-25T02:52:56.684Z,37.66
2022-08-25T02:53:41.589Z,37.87
2022-08-25T02:54:39.096Z,37.69
2022-08-25T02:55:31.362Z,37.98
2022-08-25T02:56:29.144Z,38.03
2022-08-25T02:57:31.284Z,37.66
2022-08-25T03:05:59.507Z,37.67
2022-08-25T03:06:56.836Z,37.60
2022-08-25T03:07:45.146Z,37.61
2022-08-25T03:08:27.463Z,37.67
2022-08-25T03:09:20.178Z,37.76
2022-08-25T03:10:05.881Z,37.69
2022-08-25T03:10:52.058Z,38.08
2022-08-25T03:11:38.939Z,37.53
2022-08-25T03:12:25.538Z,37.56
2022-08-25T03:13:10.754Z,38.02
2022-08-25T03:14:02.105Z,37.88
2022-08-25T03:14:54.323Z,38.03
2022-08-25T03:15:47.470Z,37.96
2022-08-25T03:16:40.603Z,37.85
2022-08-25T03:17:29.750Z,37.67
2022-08-25T03:18:20.605Z,37.58
2022-08-25T03:19:10.328Z,37.75
2022-08-25T03:20:01.920Z,37.58
2022-08-25T03:20:48.321Z,37.61
2022-08-25T03:21:35.924Z,37.57
2022-08-25T03:22:25.968Z,37.91
2022-08-25T03:23:21.866Z,37.62
2022-08-25T03:27:27.396Z,37.93
2022-08-25T03:28:05.363Z,37.51
2022-08-25T03:28:42.326Z,37.54
2022-08-25T03:29:20.473Z,37.53
2022-08-25T03:29:57.942Z,37.90
2022-08-25T03:30:35.181Z,37.55
2022-08-25T03:31:12.291Z,37.63
2022-08-25T03:31:49.982Z,38.03
2022-08-25T03:32:27.193Z,37.71
2022-08-25T03:33:04.334Z,37.64
2022-08-25T03:33:42.161Z,37.57
2022-08-25T03:34:20.296Z,37.67
2022-08-25T03:34:58.056Z,37.56
2022-08-25T03:35:35.968Z,37.57
2022-08-25T03:36:13.516Z,37.62
2022-08-25T03:36:51.628Z,37.87
2022-08-25T03:37:30.511Z,37.92
2022-08-25T03:38:08.543Z,37.53
2022-08-25T03:38:46.364Z,37.44
2022-08-25T03:39:24.103Z,37.45
2022-08-25T03:40:01.730Z,37.92
2022-08-25T03:40:39.339Z,37.81
2022-08-25T03:41:28.089Z,37.86
2022-08-25T03:42:10.120Z,37.52
2022-08-25T03:42:52.973Z,37.31
2022-08-25T03:43:36.744Z,37.61
2022-08-25T03:44:22.130Z,37.66
2022-08-25T03:45:03.387Z,37.92
2022-08-25T03:45:43.915Z,37.73
2022-08-25T03:46:23.091Z,37.48
2022-08-25T03:47:00.210Z,37.75
2022-08-25T03:47:36.766Z,37.38
2022-08-25T03:48:13.594Z,37.45
2022-08-25T03:48:51.015Z,37.63
2022-08-25T03:49:28.902Z,37.40
2022-08-25T03:50:08.063Z,37.95
2022-08-25T03:50:50.763Z,37.36
2022-08-25T03:51:41.289Z,37.34
2022-08-25T03:52:26.073Z,37.43
2022-08-25T03:53:05.043Z,37.84
2022-08-25T03:53:42.708Z,37.79
2022-08-25T03:54:20.048Z,37.75
2022-08-25T03:54:57.929Z,37.81
2022-08-25T03:55:36.672Z,37.55
2022-08-25T03:56:14.157Z,37.41
2022-08-25T03:56:52.428Z,38.02
2022-08-25T03:57:31.386Z,37.92
2022-08-25T03:58:08.956Z,37.88
2022-08-25T03:58:46.765Z,37.52
2022-08-25T03:59:24.574Z,37.46
2022-08-25T04:00:02.342Z,37.56
2022-08-25T04:00:40.321Z,37.88
2022-08-25T04:01:18.776Z,37.71
2022-08-25T04:01:57.810Z,37.60
2022-08-25T04:02:35.348Z,37.62
2022-08-25T04:03:16.696Z,37.49
2022-08-25T04:04:02.691Z,37.56
2022-08-25T04:04:51.419Z,37.84
2022-08-25T04:05:35.021Z,37.70
2022-08-25T04:06:12.790Z,37.58
2022-08-25T04:06:51.708Z,37.66
2022-08-25T04:07:29.947Z,37.90
2022-08-25T04:08:08.201Z,37.68
2022-08-25T04:08:46.049Z,37.38
2022-08-25T04:09:24.395Z,37.83
2022-08-25T04:10:02.447Z,37.59
2022-08-25T04:10:40.355Z,37.41
2022-08-25T04:11:19.822Z,37.45
2022-08-25T04:11:58.986Z,37.71
2022-08-25T04:12:37.284Z,37.59
2022-08-25T04:13:15.399Z,37.59
2022-08-25T04:13:53.771Z,37.95
2022-08-25T04:14:32.334Z,37.68
2022-08-25T04:15:09.289Z,37.73
2022-08-25T04:15:47.792Z,38.10
2022-08-25T04:16:35.105Z,38.19
2022-08-25T04:17:24.500Z,37.55
2022-08-25T04:18:01.730Z,38.11
2022-08-25T04:18:39.289Z,38.02
2022-08-25T04:19:16.682Z,37.65
2022-08-25T04:19:53.832Z,37.81
2022-08-25T04:20:31.165Z,37.63
2022-08-25T04:21:08.268Z,38.13
2022-08-25T04:21:45.387Z,37.99
2022-08-25T04:22:23.632Z,37.68
2022-08-25T04:23:00.931Z,38.05
2022-08-25T04:23:38.623Z,38.10
2022-08-25T04:24:16.495Z,37.81
2022-08-25T04:24:54.363Z,38.07
2022-08-25T04:25:32.231Z,37.77
2022-08-25T04:26:18.500Z,38.16
2022-08-25T04:26:56.791Z,38.08
2022-08-25T04:27:33.785Z,38.16
2022-08-25T04:28:11.946Z,37.82
2022-08-25T04:28:50.730Z,38.32
2022-08-25T04:29:31.858Z,37.89
2022-08-25T04:30:12.466Z,38.27
2022-08-25T04:30:52.137Z,37.90
2022-08-25T04:31:33.582Z,37.74
2022-08-25T04:32:14.900Z,37.70
2022-08-25T04:33:05.177Z,37.82
2022-08-25T04:33:48.327Z,38.10
2022-08-25T04:34:30.767Z,37.80
2022-08-25T04:35:17.296Z,37.99
2022-08-25T04:36:00.183Z,37.92
2022-08-25T04:36:37.148Z,38.45
2022-08-25T04:37:15.357Z,37.92
2022-08-25T04:37:52.300Z,37.87
2022-08-25T04:38:30.308Z,37.90
2022-08-25T04:39:07.936Z,38.32
2022-08-25T04:39:45.262Z,38.20
2022-08-25T04:40:28.978Z,38.11
2022-08-25T04:41:05.956Z,38.02
2022-08-25T04:41:43.781Z,38.05
2022-08-25T04:42:21.511Z,37.96
2022-08-25T04:42:59.834Z,37.94
2022-08-25T04:43:38.243Z,38.09
2022-08-25T04:44:16.917Z,38.44
2022-08-25T04:44:54.989Z,37.94
2022-08-25T04:45:33.022Z,37.88
2022-08-25T04:46:12.559Z,38.21
2022-08-25T04:46:53.118Z,38.06
2022-08-25T04:47:31.003Z,38.32
2022-08-25T04:48:12.065Z,38.25
2022-08-25T04:48:52.364Z,38.35
2022-08-25T04:49:34.229Z,38.08
2022-08-25T04:50:19.282Z,38.16
2022-08-25T04:51:07.989Z,38.52
2022-08-25T04:51:53.610Z,38.47
2022-08-25T04:52:40.730Z,38.26
2022-08-25T04:53:25.127Z,38.60
2022-08-25T04:54:05.462Z,38.41
2022-08-25T04:54:45.521Z,38.15
2022-08-25T04:55:23.812Z,38.51
2022-08-25T04:56:04.025Z,38.05
2022-08-25T04:56:40.974Z,38.33
2022-08-25T04:57:19.279Z,38.19
2022-08-25T04:57:57.691Z,38.67
2022-08-25T04:58:34.917Z,38.21
2022-08-25T04:59:13.540Z,38.30
2022-08-25T04:59:51.994Z,38.26
2022-08-25T05:00:29.779Z,38.31
2022-08-25T05:01:06.999Z,38.36
2022-08-25T05:01:43.855Z,38.78
2022-08-25T05:02:20.872Z,38.67
2022-08-25T05:02:58.256Z,38.58
2022-08-25T05:03:35.324Z,38.21
2022-08-25T05:04:14.687Z,38.23
2022-08-25T05:05:06.561Z,38.44
2022-08-25T05:05:54.414Z,38.37
2022-08-25T05:06:41.743Z,38.20
2022-08-25T05:07:27.060Z,37.96
2022-08-25T05:08:09.195Z,37.90
2022-08-25T05:08:47.030Z,37.86
2022-08-25T05:09:32.635Z,37.88
2022-08-25T05:10:09.885Z,37.87
2022-08-25T05:10:47.346Z,37.89
2022-08-25T05:11:24.023Z,37.95
2022-08-25T05:12:01.625Z,38.06
2022-08-25T05:12:38.351Z,37.87
2022-08-25T05:13:15.743Z,38.20
2022-08-25T05:13:53.592Z,37.78
2022-08-25T05:14:30.614Z,37.81
2022-08-25T05:15:08.385Z,37.89
2022-08-25T05:15:46.139Z,37.82
2022-08-25T05:16:24.035Z,37.82
2022-08-25T05:17:01.635Z,38.46
2022-08-25T05:17:39.422Z,37.86
2022-08-25T05:18:18.009Z,37.91
2022-08-25T05:18:57.014Z,38.16
2022-08-25T05:19:35.030Z,37.89
2022-08-25T05:20:12.311Z,37.83
2022-08-25T05:20:50.482Z,38.22
2022-08-25T05:21:28.357Z,37.92
2022-08-25T05:22:06.141Z,38.30
2022-08-25T05:22:44.524Z,38.06
2022-08-25T05:23:25.310Z,37.81
2022-08-25T05:24:08.794Z,38.37
2022-08-25T05:24:53.155Z,38.18
2022-08-25T05:25:41.381Z,38.00
2022-08-25T05:26:20.426Z,38.17
2022-08-25T05:27:04.677Z,37.93
2022-08-25T05:27:50.939Z,38.22
2022-08-25T05:28:34.735Z,37.93
2022-08-25T05:29:20.367Z,38.19
2022-08-25T05:29:57.779Z,38.03
2022-08-25T05:30:34.916Z,37.98
2022-08-25T05:31:12.259Z,38.04
2022-08-25T05:31:50.967Z,38.01
2022-08-25T05:32:27.338Z,38.41
2022-08-25T05:33:04.942Z,38.26
2022-08-25T05:33:42.718Z,37.89
2022-08-25T05:34:20.901Z,37.91
2022-08-25T05:34:58.112Z,37.80
2022-08-25T05:35:35.534Z,38.24
2022-08-25T05:36:12.591Z,38.00
2022-08-25T05:36:49.834Z,37.85
2022-08-25T05:37:27.363Z,38.00
2022-08-25T05:38:05.334Z,38.38
2022-08-25T05:38:42.527Z,37.93
2022-08-25T05:39:21.901Z,38.40
2022-08-25T05:39:59.870Z,37.98
2022-08-25T05:40:38.054Z,38.48
2022-08-25T05:41:15.620Z,37.96
2022-08-25T05:41:54.370Z,37.99
2022-08-25T05:42:31.930Z,37.95
2022-08-25T05:43:10.151Z,38.00
2022-08-25T05:43:47.562Z,37.92
2022-08-25T05:44:26.030Z,38.22
2022-08-25T05:45:04.330Z,38.29
2022-08-25T05:45:41.892Z,37.95
2022-08-25T05:46:19.717Z,38.47
2022-08-25T05:46:57.426Z,38.27
2022-08-25T05:47:35.210Z,38.04
2022-08-25T05:48:12.808Z,38.23
2022-08-25T05:48:47.976Z,38.03
2022-08-25T05:49:27.700Z,38.16
2022-08-25T05:50:07.687Z,38.36
2022-08-25T05:50:53.302Z,38.25
2022-08-25T05:51:34.827Z,38.07
2022-08-25T05:52:10.062Z,38.35
2022-08-25T05:52:49.376Z,38.00
2022-08-25T06:54:28.743Z,39.30
2022-08-25T06:55:07.777Z,39.16
2022-08-25T06:55:52.981Z,39.64
2022-08-25T06:56:41.189Z,39.68
2022-08-25T06:57:17.476Z,39.25
2022-08-25T06:57:58.358Z,39.17
2022-08-25T08:54:20.748Z,40.40
2022-08-25T08:55:06.452Z,40.27
2022-08-25T08:55:48.334Z,39.96
2022-08-25T08:56:33.364Z,39.92
2022-08-25T08:57:17.403Z,40.15
2022-08-25T08:57:53.392Z,40.14
2022-08-25T08:58:39.312Z,40.32
2022-08-25T08:59:29.972Z,40.20
2022-08-25T09:00:15.332Z,40.21
2022-08-25T09:00:57.278Z,39.85
2022-08-25T10:14:44.689Z,39.93
2022-08-25T10:15:29.932Z,39.50
2022-08-25T10:16:35.588Z,39.84
2022-08-25T10:17:27.437Z,39.59
2022-08-25T11:24:29.905Z,38.79
2022-08-25T11:25:06.915Z,39.24
2022-08-25T11:25:50.843Z,38.83
2022-08-25T11:26:31.040Z,38.92
2022-08-25T11:27:04.638Z,38.61
2022-08-25T11:27:56.146Z,38.92
2022-08-25T11:28:30.990Z,38.77
2022-08-25T11:29:04.086Z,38.42
2022-08-25T11:29:35.535Z,38.94
2022-08-25T11:30:09.386Z,38.72
2022-08-25T11:30:40.953Z,38.82
2022-08-25T11:31:12.438Z,38.83
2022-08-25T11:31:48.345Z,38.47
2022-08-25T11:32:24.259Z,38.36
2022-08-25T11:32:55.624Z,38.49
2022-08-25T11:33:27.660Z,38.38
2022-08-25T11:33:59.269Z,38.73
2022-08-25T11:34:31.240Z,38.51
2022-08-25T11:35:04.701Z,38.47
2022-08-25T11:35:40.266Z,38.08
2022-08-25T11:36:19.899Z,38.35
2022-08-25T11:36:56.549Z,38.46
2022-08-25T11:37:28.424Z,38.25
2022-08-25T11:38:26.118Z,38.69
2022-08-25T11:39:15.224Z,38.42
2022-08-25T11:40:09.060Z,38.02
2022-08-25T11:40:55.126Z,37.94
2022-08-25T11:41:44.855Z,38.08
2022-08-25T11:42:26.154Z,38.23
2022-08-25T11:43:11.047Z,37.93
2022-08-25T11:43:48.901Z,37.95
2022-08-25T11:44:32.528Z,38.01
2022-08-25T11:45:08.916Z,38.61
2022-08-25T11:45:58.136Z,38.10
2022-08-25T11:46:42.618Z,38.15
2022-08-25T11:47:21.230Z,38.59
2022-08-25T11:48:03.888Z,38.61
2022-08-25T11:49:41.053Z,38.37
2022-08-25T11:50:30.191Z,38.31
2022-08-25T11:51:12.237Z,38.20
2022-08-25T11:51:44.584Z,38.52
2022-08-25T11:52:35.212Z,38.44
2022-08-25T11:53:18.003Z,38.24
2022-08-25T11:54:16.936Z,38.25
2022-08-25T11:54:48.363Z,38.39
2022-08-25T11:55:23.152Z,37.94
2022-08-25T11:55:55.607Z,37.82
2022-08-25T11:56:40.168Z,38.22
2022-08-25T11:57:24.322Z,38.12
2022-08-25T11:58:14.937Z,38.30
2022-08-25T11:58:49.929Z,37.87
2022-08-25T11:59:40.028Z,38.46
2022-08-25T12:00:20.431Z,38.39
2022-08-25T12:00:52.097Z,38.38
2022-08-25T12:01:41.632Z,37.99
2022-08-25T12:02:27.978Z,38.33
2022-08-25T12:03:01.507Z,38.38
2022-08-25T12:03:33.207Z,38.30
2022-08-25T12:04:31.575Z,38.39
2022-08-25T12:05:10.918Z,37.65
2022-08-25T12:06:01.016Z,37.76
2022-08-25T12:06:32.659Z,38.13
2022-08-25T12:07:07.186Z,38.12
2022-08-25T12:07:47.718Z,37.77
2022-08-25T12:08:39.367Z,37.58
2022-08-25T12:09:10.783Z,38.10
2022-08-25T12:09:51.502Z,38.48
2022-08-25T12:10:23.684Z,38.23
2022-08-25T12:10:55.100Z,37.62
2022-08-25T12:11:38.516Z,38.17
2022-08-25T12:12:29.332Z,38.18
2022-08-25T12:13:02.645Z,37.65
2022-08-25T12:13:43.216Z,38.13
2022-08-25T12:14:16.185Z,37.93
2022-08-25T12:14:47.639Z,37.60
2022-08-25T12:15:26.032Z,38.04
2022-08-25T12:15:58.781Z,38.13
2022-08-25T12:16:35.901Z,37.68
2022-08-25T12:17:16.406Z,37.47
2022-08-25T12:18:07.476Z,37.58
2022-08-25T12:18:45.895Z,37.48
2022-08-25T12:19:36.083Z,37.69
2022-08-25T12:20:07.768Z,37.58
2022-08-25T12:20:54.409Z,37.85
2022-08-25T12:21:29.930Z,37.94
2022-08-25T12:22:03.361Z,37.93
2022-08-25T12:22:35.345Z,37.63
2022-08-25T12:23:06.878Z,38.01
2022-08-25T12:24:13.727Z,37.66
2022-08-25T12:25:17.833Z,37.39
2022-08-25T12:25:50.005Z,37.51
2022-08-25T12:26:24.831Z,38.02
2022-08-25T12:26:59.154Z,38.03
2022-08-25T12:27:33.553Z,37.91
2022-08-25T12:28:09.383Z,37.45
2022-08-25T12:28:47.091Z,37.72
2022-08-25T12:29:24.296Z,37.92
2022-08-25T12:30:05.071Z,37.68
2022-08-25T12:30:45.327Z,37.86
2022-08-25T12:31:30.233Z,37.96
2022-08-25T12:32:22.307Z,37.42
2022-08-25T12:33:08.384Z,37.91
2022-08-25T12:33:40.318Z,37.81
2022-08-25T12:34:17.279Z,37.82
2022-08-25T12:34:54.431Z,38.00
2022-08-25T12:35:29.591Z,37.83
2022-08-25T12:36:04.867Z,37.42
2022-08-25T12:36:36.367Z,37.71
2022-08-25T12:37:12.292Z,37.50
2022-08-25T12:37:57.066Z,37.82
2022-08-25T12:38:30.345Z,37.34
2022-08-25T12:39:08.819Z,37.33
2022-08-25T12:39:44.133Z,37.42
2022-08-25T12:40:20.057Z,37.34
2022-08-25T12:41:00.464Z,37.60
2022-08-25T12:41:33.788Z,37.67
2022-08-25T12:42:06.183Z,37.41
2022-08-25T12:42:37.974Z,37.07
2022-08-25T12:43:28.876Z,37.13
2022-08-25T12:44:28.646Z,37.10
2022-08-25T12:45:12.783Z,37.17
2022-08-25T12:45:45.153Z,37.51
2022-08-25T12:46:19.929Z,37.55
2022-08-25T12:47:01.950Z,37.14
2022-08-25T12:47:35.793Z,37.00
2022-08-25T12:48:26.209Z,37.40
2022-08-25T12:49:28.902Z,37.11
2022-08-25T12:50:18.797Z,37.47
2022-08-25T12:50:55.385Z,36.98
2022-08-25T12:51:27.327Z,37.69
2022-08-25T12:52:00.725Z,37.51
2022-08-25T12:52:32.252Z,37.51
2022-08-25T12:53:07.897Z,37.30
2022-08-25T12:53:49.831Z,37.27
2022-08-25T12:54:23.877Z,37.12
2022-08-25T12:54:56.475Z,37.27
2022-08-25T12:55:28.119Z,37.31
2022-08-25T12:56:06.599Z,37.73
2022-08-25T12:56:41.094Z,37.57
2022-08-25T12:57:25.073Z,37.53
2022-08-25T12:58:00.985Z,37.57
2022-08-25T12:59:00.844Z,37.06
2022-08-25T12:59:36.785Z,37.14
2022-08-25T13:00:20.141Z,37.15
2022-08-25T13:01:03.766Z,37.76
2022-08-25T13:01:57.844Z,37.57
2022-08-25T13:02:53.409Z,37.42
2022-08-25T13:04:26.301Z,37.34
2022-08-25T13:05:16.672Z,37.04
2022-08-25T13:05:48.044Z,36.96
2022-08-25T13:06:26.431Z,37.10
2022-08-25T13:07:13.225Z,37.46
2022-08-25T13:07:57.112Z,37.60
2022-08-25T13:08:36.987Z,37.20
2022-08-25T13:09:11.196Z,37.23
2022-08-25T13:10:01.125Z,37.67
2022-08-25T13:10:44.282Z,37.22
2022-08-25T13:11:17.700Z,37.62
2022-08-25T13:11:53.867Z,37.53
2022-08-25T13:12:35.125Z,37.48
2022-08-25T13:13:09.268Z,37.60
2022-08-25T13:13:43.570Z,37.43
2022-08-25T13:14:18.654Z,37.18
2022-08-25T13:14:53.576Z,37.03
2022-08-25T13:15:28.306Z,37.35
2022-08-25T13:16:03.796Z,37.56
2022-08-25T13:16:36.063Z,37.52
2022-08-25T13:17:07.758Z,37.09
2022-08-25T13:17:41.236Z,37.46
2022-08-25T13:18:13.601Z,37.05
2022-08-25T13:18:45.172Z,36.98
2022-08-25T13:19:23.041Z,36.98
2022-08-25T13:20:14.726Z,37.01
2022-08-25T13:20:47.184Z,37.41
2022-08-25T13:21:28.174Z,37.44
2022-08-25T13:22:01.449Z,37.16
2022-08-25T13:22:33.567Z,37.40
2022-08-25T13:23:05.133Z,37.13
2022-08-25T13:23:37.517Z,37.44
2022-08-25T13:24:15.143Z,37.33
2022-08-25T13:24:47.677Z,37.42
2022-08-25T13:25:23.138Z,36.86
2022-08-25T13:25:58.627Z,36.66
2022-08-25T13:26:32.072Z,37.19
2022-08-25T13:27:05.597Z,36.93
2022-08-25T13:27:38.965Z,37.28
2022-08-25T13:28:11.186Z,37.42
2022-08-25T13:28:43.091Z,37.22
2022-08-25T13:29:23.052Z,36.91
2022-08-25T13:29:56.176Z,37.16
2022-08-25T13:30:32.244Z,37.46
2022-08-25T13:31:24.077Z,37.00
2022-08-25T13:31:57.026Z,36.95
2022-08-25T13:32:35.247Z,37.07
2022-08-25T13:33:17.192Z,37.15
2022-08-25T13:33:54.917Z,37.00
2022-08-25T13:34:35.026Z,37.06
2022-08-25T13:35:14.974Z,37.23
2022-08-25T13:35:52.410Z,37.35
2022-08-25T13:36:27.018Z,37.12
2022-08-25T13:37:25.606Z,36.96
2022-08-25T13:38:16.145Z,37.51
2022-08-25T13:38:49.016Z,37.12
2022-08-25T13:39:45.461Z,37.04
2022-08-25T13:40:15.089Z,37.03
2022-08-25T13:40:49.515Z,37.52
2022-08-25T13:41:22.946Z,37.45
2022-08-25T13:42:00.907Z,36.94
2022-08-25T13:42:36.515Z,37.03
2022-08-25T13:43:09.223Z,37.47
2022-08-25T13:43:40.963Z,37.31
2022-08-25T13:44:13.370Z,36.93
2022-08-25T13:44:51.908Z,37.51
2022-08-25T13:45:28.865Z,37.60
2022-08-25T13:46:03.709Z,37.12
2022-08-25T13:46:35.595Z,36.97
2022-08-25T13:47:11.223Z,37.23
2022-08-25T13:47:45.206Z,37.42
2022-08-25T13:48:31.272Z,37.28
2022-08-25T13:49:03.735Z,37.21
2022-08-25T13:49:35.416Z,37.04
2022-08-25T13:50:22.593Z,37.03
2022-08-25T13:50:54.435Z,37.36
2022-08-25T13:51:31.027Z,37.42
2022-08-25T13:52:03.303Z,37.08
2022-08-25T13:52:35.690Z,37.42
2022-08-25T13:53:11.357Z,37.39
2022-08-25T13:53:47.457Z,37.54
2022-08-25T13:54:29.804Z,37.08
2022-08-25T13:55:01.197Z,37.34
2022-08-25T13:55:38.166Z,37.49
2022-08-25T13:56:40.742Z,37.41
2022-08-25T13:57:18.596Z,36.96
2022-08-25T13:57:50.039Z,37.30
2022-08-25T13:58:39.353Z,37.06
2022-08-25T13:59:27.066Z,37.50
2022-08-25T14:00:04.027Z,37.23
2022-08-25T14:00:43.586Z,37.52
2022-08-25T14:01:50.538Z,37.70
2022-08-25T14:02:41.626Z,37.06
2022-08-25T14:03:34.381Z,37.61
2022-08-25T14:04:24.716Z,36.99
2022-08-25T14:04:56.140Z,37.02
2022-08-25T14:05:31.943Z,36.80
2022-08-25T14:06:16.796Z,37.00
2022-08-25T14:06:48.335Z,37.51
2022-08-25T14:07:20.339Z,37.41
2022-08-25T14:08:09.041Z,37.34
2022-08-25T14:08:47.397Z,36.89
2022-08-25T14:09:28.258Z,37.21
2022-08-25T14:09:59.907Z,36.94
2022-08-25T14:10:32.910Z,37.05
2022-08-25T14:11:28.201Z,37.49
2022-08-25T14:11:59.579Z,37.35
2022-08-25T14:12:44.943Z,37.43
2022-08-25T14:13:31.239Z,36.96
2022-08-25T14:14:04.057Z,37.33
2022-08-25T14:14:36.680Z,36.99
2022-08-25T14:15:13.112Z,36.98
2022-08-25T14:15:44.643Z,37.29
2022-08-25T14:16:19.937Z,37.27
2022-08-25T14:16:54.189Z,37.54
2022-08-25T14:17:38.693Z,36.87
2022-08-25T14:18:21.455Z,36.93
2022-08-25T14:18:58.891Z,37.48
2022-08-25T14:19:30.895Z,36.96
2022-08-25T14:20:02.617Z,36.88
2022-08-25T14:20:34.156Z,37.29
2022-08-25T14:21:10.335Z,36.84
2022-08-25T14:21:42.752Z,37.25
2022-08-25T14:22:14.200Z,37.49
2022-08-25T14:22:45.711Z,37.01
2022-08-25T14:23:20.978Z,37.41
2022-08-25T14:23:53.394Z,37.03
2022-08-25T14:24:24.919Z,36.89
2022-08-25T14:24:56.840Z,36.92
2022-08-25T14:25:28.344Z,37.42
2022-08-25T14:26:01.979Z,37.39
2022-08-25T14:26:33.401Z,37.10
2022-08-25T14:27:04.924Z,36.96
2022-08-25T14:27:42.080Z,37.52
2022-08-25T14:28:28.316Z,37.54
2022-08-25T14:28:59.749Z,36.89
2022-08-25T14:29:31.277Z,36.99
2022-08-25T14:30:07.277Z,37.36
2022-08-25T14:30:46.619Z,37.00
2022-08-25T14:31:25.502Z,37.49
2022-08-25T14:31:57.223Z,37.02
2022-08-25T14:32:28.698Z,36.98
2022-08-25T14:33:00.196Z,36.97
2022-08-25T14:33:37.099Z,37.40
2022-08-25T14:34:28.721Z,36.95
2022-08-25T14:35:07.426Z,37.32
2022-08-25T14:35:42.133Z,37.00
2022-08-25T14:36:13.590Z,37.18
2022-08-25T14:36:50.098Z,37.26
2022-08-25T14:37:25.509Z,37.35
2022-08-25T14:37:57.162Z,37.26
2022-08-25T14:38:28.660Z,37.01
2022-08-25T14:39:00.122Z,36.98
2022-08-25T14:39:32.981Z,37.34
2022-08-25T14:40:04.794Z,37.20
2022-08-25T14:40:37.171Z,37.24
2022-08-25T14:41:40.734Z,36.97
2022-08-25T14:42:12.742Z,37.33
2022-08-25T14:42:44.142Z,37.13
2022-08-25T14:43:15.598Z,37.11
2022-08-25T14:43:47.347Z,36.99
2022-08-25T14:44:19.644Z,37.46
2022-08-25T14:44:51.452Z,37.00
2022-08-25T14:45:23.166Z,37.42
2022-08-25T14:45:54.847Z,36.96
2022-08-25T14:46:27.592Z,37.19
2022-08-25T14:46:59.037Z,36.92
2022-08-25T14:47:30.967Z,37.08
2022-08-25T14:48:04.232Z,36.91
2022-08-25T14:48:42.826Z,37.35
2022-08-25T14:49:16.090Z,36.94
2022-08-25T14:49:47.557Z,37.41
2022-08-25T14:50:20.876Z,36.96
2022-08-25T14:50:53.244Z,36.95
2022-08-25T14:51:24.842Z,36.96
2022-08-25T14:51:56.418Z,36.80
2022-08-25T14:52:28.382Z,36.90
2022-08-25T14:53:00.515Z,37.36
2022-08-25T14:53:32.800Z,36.99
2022-08-25T14:54:05.943Z,36.93
2022-08-25T14:54:37.807Z,37.03
2022-08-25T14:55:09.673Z,37.36
2022-08-25T14:55:41.158Z,37.34
2022-08-25T14:56:14.231Z,37.33
2022-08-25T14:56:46.282Z,37.08
2022-08-25T14:57:17.986Z,37.06
2022-08-25T14:57:49.375Z,37.07
2022-08-25T14:58:25.738Z,37.49
2022-08-25T14:58:59.730Z,37.22
2022-08-25T14:59:31.206Z,37.54
2022-08-25T15:00:04.377Z,37.09
2022-08-25T15:00:40.796Z,37.34
2022-08-25T15:01:13.388Z,37.22
2022-08-25T15:01:44.898Z,37.07
2022-08-25T15:02:16.563Z,37.31
2022-08-25T15:02:51.669Z,37.40
2022-08-25T15:03:34.060Z,36.95
2022-08-25T15:04:08.150Z,36.96
2022-08-25T15:04:39.747Z,37.38
2022-08-25T15:05:24.227Z,36.93
2022-08-25T15:05:56.645Z,37.37
2022-08-25T15:06:28.184Z,37.06
2022-08-25T15:07:00.101Z,37.19
2022-08-25T15:07:31.718Z,37.54
2022-08-25T15:08:03.680Z,37.25
2022-08-25T15:08:35.195Z,37.52
2022-08-25T15:09:06.750Z,37.42
2022-08-25T15:09:39.405Z,37.18
2022-08-25T15:10:13.796Z,37.21
2022-08-25T15:10:45.400Z,37.05
2022-08-25T15:11:17.055Z,37.55
2022-08-25T15:11:50.766Z,37.22
2022-08-25T15:12:46.143Z,37.04
2022-08-25T15:13:13.939Z,37.10
2022-08-25T15:13:49.375Z,37.13
2022-08-25T15:14:28.850Z,37.44
2022-08-25T15:15:04.767Z,37.17
2022-08-25T15:15:38.242Z,37.37
2022-08-25T15:16:09.717Z,37.44